»·PEaware :: N478GF KSMX-KBFL

N478GF :: KSMX-KBFL

FLIGHT INFORMATION

Flight Status: Arrived
Operator: Privately registered:
United States
More flights under this callsign
Pilot: Aaron H. (20539)
Aircraft: CESSNA 172 SKYHAWK
(C172)
More flights by this aircraft type
Origin: KSMX Santa Maria Pub/Capt Hancock
United States
Destination: KBFL Meadows
United States
More flights between these airports :: More routes between these airports
Route: KSMX FLW KBFL
File this flight plan on PilotEdge
Remarks:
Altitude:
(Current/Filed)
6,500ft
Speed:
(Current/Filed)
130kts
Departed: 25-Sep-18 06:17 PM
Arrived: 25-Sep-18 07:06 PM
Distance/Time
Traveled:
76nm/0:48
Distance/Time
To Go:
Arrived

Flight Plot

Page will automatically refresh every two minutes.


Map Options




Map Legend


Flown Route
Filed Route
Departure Airport
Arrival Airport
Navaid (VOR, NDB)
Fix

Horizontal Profiles

Position Reports

Time Latitude Longitude Heading Altitude Ground
Speed
25-Sep-18 18:06 34.900849 -120.451671 47 265ft 0kts
25-Sep-18 18:07 34.900863 -120.451937 316 265ft 3kts
25-Sep-18 18:08 34.901193 -120.452381 309 265ft 0kts
25-Sep-18 18:09 34.901194 -120.452381 309 265ft 0kts
25-Sep-18 18:10 34.901272 -120.452672 266 265ft 6kts
25-Sep-18 18:11 34.899303 -120.451074 138 265ft 10kts
25-Sep-18 18:12 34.897296 -120.448682 133 265ft 17kts
25-Sep-18 18:13 34.894483 -120.445443 159 265ft 8kts
25-Sep-18 18:14 34.893697 -120.445388 179 265ft 0kts
25-Sep-18 18:15 34.893697 -120.445388 179 265ft 0kts
25-Sep-18 18:16 34.893697 -120.445388 179 265ft 0kts
25-Sep-18 18:17 34.893697 -120.445388 179 265ft 0kts
25-Sep-18 18:18 34.892806 -120.445763 297 265ft 1kts
25-Sep-18 18:19 34.898715 -120.453090 311 573ft 65kts
25-Sep-18 18:20 34.906035 -120.439836 128 1318ft 103kts
25-Sep-18 18:21 34.886253 -120.416739 144 2362ft 92kts
25-Sep-18 18:22 34.868332 -120.429353 235 2982ft 110kts
25-Sep-18 18:23 34.854759 -120.410723 72 3768ft 101kts
25-Sep-18 18:24 34.859027 -120.377553 81 4542ft 101kts
25-Sep-18 18:25 34.862819 -120.345580 73 5278ft 94kts
25-Sep-18 18:26 34.868810 -120.316051 68 6067ft 86kts
25-Sep-18 18:27 34.877763 -120.287309 62 6491ft 110kts
25-Sep-18 18:28 34.889754 -120.250385 68 6487ft 120kts
25-Sep-18 18:29 34.900338 -120.212561 67 6485ft 117kts
25-Sep-18 18:30 34.912171 -120.175506 65 6455ft 117kts
25-Sep-18 18:31 34.924974 -120.138515 65 6454ft 126kts
25-Sep-18 18:32 34.941144 -120.099267 65 6465ft 130kts
25-Sep-18 18:33 34.957308 -120.060538 65 6546ft 128kts
25-Sep-18 18:34 34.975827 -120.022829 58 6542ft 130kts
25-Sep-18 18:35 34.996748 -119.986630 54 6540ft 130kts
25-Sep-18 18:36 35.019771 -119.952376 51 6540ft 131kts
25-Sep-18 18:37 35.044331 -119.919548 47 6540ft 131kts
25-Sep-18 18:38 35.070601 -119.888407 44 6542ft 132kts
25-Sep-18 18:39 35.098026 -119.858812 56 6538ft 131kts
25-Sep-18 18:40 35.110147 -119.819718 71 6540ft 129kts
25-Sep-18 18:41 35.120935 -119.785791 71 6539ft 128kts
25-Sep-18 18:42 35.135963 -119.738555 71 6534ft 128kts
25-Sep-18 18:43 35.146976 -119.704583 71 6527ft 129kts
25-Sep-18 18:44 35.162412 -119.657206 70 6516ft 129kts
25-Sep-18 18:45 35.173409 -119.622839 71 6508ft 130kts
25-Sep-18 18:46 35.190817 -119.575633 64 6498ft 132kts
25-Sep-18 18:47 35.201842 -119.546729 64 6491ft 122kts
25-Sep-18 18:48 35.214303 -119.509336 64 6484ft 117kts
25-Sep-18 18:49 35.226497 -119.472639 64 6484ft 116kts
25-Sep-18 18:50 35.238892 -119.436280 59 6484ft 115kts
25-Sep-18 18:51 35.252960 -119.403948 59 6398ft 87kts
25-Sep-18 18:52 35.264729 -119.376677 56 5810ft 88kts
25-Sep-18 18:53 35.277216 -119.349938 54 5096ft 103kts
25-Sep-18 18:54 35.294458 -119.319236 51 3797ft 120kts
25-Sep-18 18:55 35.314321 -119.287666 45 2554ft 115kts
25-Sep-18 18:56 35.329623 -119.263196 44 2535ft 87kts
25-Sep-18 18:57 35.344988 -119.234172 57 2593ft 108kts
25-Sep-18 18:58 35.359676 -119.200605 57 2478ft 118kts
25-Sep-18 18:59 35.374868 -119.166076 58 2269ft 114kts
25-Sep-18 19:00 35.389635 -119.131271 57 1718ft 114kts
25-Sep-18 19:01 35.404850 -119.101183 43 1421ft 89kts
25-Sep-18 19:02 35.422230 -119.079191 39 1465ft 96kts
25-Sep-18 19:03 35.439931 -119.055615 52 1539ft 93kts
25-Sep-18 19:04 35.426810 -119.031973 133 1514ft 95kts
25-Sep-18 19:05 35.410712 -119.026967 297 1247ft 71kts
25-Sep-18 19:06 35.422017 -119.041961 314 828ft 55kts
25-Sep-18 19:07 35.432988 -119.055208 314 509ft 53kts
25-Sep-18 19:08 35.439377 -119.062591 344 495ft 13kts
25-Sep-18 19:09 35.440350 -119.062689 356 498ft 0kts
25-Sep-18 19:10 35.440380 -119.062691 355 498ft 2kts
25-Sep-18 19:11 35.440530 -119.062052 136 500ft 8kts
25-Sep-18 19:12 35.438902 -119.060045 137 497ft 15kts
25-Sep-18 19:13 35.435336 -119.055774 134 492ft 18kts
25-Sep-18 19:14 35.433009 -119.052981 133 493ft 17kts
25-Sep-18 19:15 35.429136 -119.048330 135 489ft 20kts
25-Sep-18 19:16 35.425837 -119.044253 143 481ft 0kts
25-Sep-18 19:17 35.425554 -119.043934 107 481ft 6kts
25-Sep-18 19:18 35.425623 -119.042809 355 482ft 1kts
25-Sep-18 19:19 35.425869 -119.042798 4 483ft 0kts
25-Sep-18 19:20 35.425869 -119.042798 4 483ft 0kts
25-Sep-18 19:21 35.425869 -119.042798 4 483ft 0kts
25-Sep-18 19:22 35.425869 -119.042798 4 483ft 0kts

Navigation Log

Ident Type
Flight plan parsing failed, navigation log unavailable